Time;durP1;ratioP1;P1;durP2;ratioP2;P2;SDS_P1;SDS_P2;PMS_P1;PMS_P2;Temp;Humidity;BMP_temperature;BMP_pressure;BME280_temperature;BME280_humidity;BME280_pressure;Samples;Min_cycle;Max_cycle;Signal;HPM_P1;HPM_P2
2023/05/12 00:02:23;;;;;;;12.30;9.45;;;12.60;99.90;;;;;;4991630;28;20442;-52
2023/05/12 00:04:49;;;;;;;13.52;9.18;;;12.60;99.90;;;;;;4991825;28;20022;-55
2023/05/12 00:07:15;;;;;;;12.40;8.98;;;12.60;99.90;;;;;;4993156;28;20479;-52
2023/05/12 00:09:40;;;;;;;13.18;10.07;;;12.60;99.90;;;;;;4992222;28;20410;-55
2023/05/12 00:12:07;;;;;;;10.57;8.07;;;12.70;99.90;;;;;;4991967;28;20567;-52
2023/05/12 00:14:34;;;;;;;10.35;8.65;;;12.70;99.90;;;;;;4991901;28;20058;-52
2023/05/12 00:17:00;;;;;;;12.57;8.75;;;12.70;99.90;;;;;;4991785;28;20038;-56
2023/05/12 00:19:25;;;;;;;13.82;9.35;;;12.70;99.90;;;;;;5023723;28;20030;-52
2023/05/12 00:21:51;;;;;;;11.45;9.60;;;12.70;99.90;;;;;;4991658;28;20129;-56
2023/05/12 00:24:17;;;;;;;10.88;8.35;;;12.70;99.90;;;;;;4991894;28;20459;-56
2023/05/12 00:26:43;;;;;;;10.35;8.63;;;12.70;99.90;;;;;;4992142;28;20101;-56
2023/05/12 00:29:08;;;;;;;12.60;9.77;;;12.70;99.90;;;;;;4991681;28;20026;-53
2023/05/12 00:31:34;;;;;;;11.73;9.25;;;12.70;99.90;;;;;;4992054;28;20027;-53
2023/05/12 00:33:59;;;;;;;11.13;8.98;;;12.60;99.90;;;;;;4992001;28;20484;-53
2023/05/12 00:36:25;;;;;;;13.85;9.32;;;12.70;99.90;;;;;;4993303;28;20035;-53
2023/05/12 00:38:50;;;;;;;10.43;9.27;;;12.70;99.90;;;;;;4991577;28;20105;-54
2023/05/12 00:41:16;;;;;;;10.55;9.43;;;12.70;99.90;;;;;;4991582;28;20471;-52
2023/05/12 00:43:41;;;;;;;12.85;10.07;;;12.70;99.90;;;;;;4991928;28;20030;-53
2023/05/12 00:46:07;;;;;;;11.73;8.90;;;12.70;99.90;;;;;;4991887;28;20034;-53
2023/05/12 00:48:34;;;;;;;10.75;9.10;;;12.70;99.90;;;;;;4991905;28;20486;-55
2023/05/12 00:51:00;;;;;;;12.38;10.10;;;12.70;99.90;;;;;;4991543;28;20437;-54
2023/05/12 00:53:27;;;;;;;10.57;8.30;;;12.70;99.90;;;;;;4991828;28;20403;-56
2023/05/12 00:55:54;;;;;;;10.40;8.73;;;12.70;99.90;;;;;;4991843;28;20026;-56
2023/05/12 00:58:19;;;;;;;10.85;9.20;;;12.70;99.90;;;;;;4991163;28;20394;-56
2023/05/12 01:00:45;;;;;;;10.40;9.02;;;12.60;99.90;;;;;;4991584;28;20030;-55
2023/05/12 01:03:11;;;;;;;13.30;10.00;;;12.60;99.90;;;;;;4990340;28;20121;-54
2023/05/12 01:05:49;;;;;;;15.63;10.45;;;12.60;99.90;;;;;;4991652;28;20022;-54
2023/05/12 01:08:16;;;;;;;14.18;9.90;;;12.60;99.90;;;;;;4991445;28;20027;-53
2023/05/12 01:10:43;;;;;;;13.23;9.35;;;12.60;99.90;;;;;;4990561;28;20151;-50
2023/05/12 01:13:09;;;;;;;13.15;10.00;;;12.60;99.90;;;;;;4991620;28;20045;-54
2023/05/12 01:15:36;;;;;;;10.68;9.43;;;12.70;99.90;;;;;;4990460;28;20026;-54
2023/05/12 01:18:04;;;;;;;13.10;9.25;;;12.60;99.90;;;;;;4991340;28;20505;-53
2023/05/12 01:20:30;;;;;;;13.30;10.40;;;12.70;99.90;;;;;;4991607;28;20038;-56
2023/05/12 01:22:57;;;;;;;11.75;9.50;;;12.70;99.90;;;;;;4991465;28;20040;-54
2023/05/12 01:25:23;;;;;;;10.55;9.35;;;12.70;99.90;;;;;;4991799;28;20430;-51
2023/05/12 01:27:50;;;;;;;11.15;9.10;;;12.70;99.90;;;;;;4994805;28;20022;-55
2023/05/12 01:30:17;;;;;;;11.77;9.38;;;12.70;99.90;;;;;;4995088;28;20018;-53
2023/05/12 01:32:43;;;;;;;12.52;10.20;;;12.70;99.90;;;;;;4994951;28;20023;-51
2023/05/12 01:35:09;;;;;;;14.85;9.15;;;12.70;99.90;;;;;;4995072;28;20039;-55
2023/05/12 01:37:35;;;;;;;11.50;9.57;;;12.70;99.90;;;;;;4994730;28;20504;-55
2023/05/12 01:40:01;;;;;;;10.80;9.63;;;12.70;99.90;;;;;;4995136;28;20038;-57
2023/05/12 01:42:26;;;;;;;10.18;8.57;;;12.70;99.90;;;;;;4994409;28;20026;-53
2023/05/12 01:44:52;;;;;;;13.55;9.85;;;12.70;99.90;;;;;;4994922;28;20023;-53
2023/05/12 01:47:18;;;;;;;10.90;9.15;;;12.80;99.90;;;;;;4994506;28;20034;-53
2023/05/12 01:49:44;;;;;;;12.40;8.75;;;12.80;99.90;;;;;;4994893;28;20033;-52
2023/05/12 01:52:10;;;;;;;10.63;8.98;;;12.80;99.90;;;;;;4994510;28;20426;-49
2023/05/12 01:54:35;;;;;;;31.85;23.17;;;12.90;99.90;;;;;;4994578;28;20061;-56
2023/05/12 01:57:01;;;;;;;109.70;69.78;;;12.80;99.90;;;;;;4994484;28;20036;-54
2023/05/12 01:59:26;;;;;;;19.05;14.10;;;12.90;99.90;;;;;;4994560;28;20031;-52
2023/05/12 02:01:52;;;;;;;9.50;8.25;;;12.80;99.90;;;;;;4994735;28;20555;-53
2023/05/12 02:04:17;;;;;;;12.57;9.60;;;12.80;99.90;;;;;;4994744;28;20102;-55
2023/05/12 02:06:42;;;;;;;9.95;8.60;;;12.80;99.90;;;;;;4994916;28;20368;-54
2023/05/12 02:09:08;;;;;;;10.30;8.25;;;12.70;99.90;;;;;;4993446;28;20062;-54
2023/05/12 02:11:34;;;;;;;9.93;8.70;;;12.70;99.90;;;;;;4994119;28;20376;-55
2023/05/12 02:13:59;;;;;;;10.73;8.00;;;12.60;99.90;;;;;;4994240;28;20033;-54
2023/05/12 02:16:25;;;;;;;13.35;9.85;;;12.70;99.90;;;;;;4994678;28;20402;-53
2023/05/12 02:18:50;;;;;;;9.55;8.20;;;12.60;99.90;;;;;;4993929;28;20073;-50
2023/05/12 02:21:16;;;;;;;10.52;9.00;;;12.60;99.90;;;;;;4993822;28;20035;-54
2023/05/12 02:23:41;;;;;;;10.35;8.98;;;12.60;99.90;;;;;;4994021;28;20034;-54
2023/05/12 02:26:07;;;;;;;10.30;8.57;;;12.60;99.90;;;;;;4994085;28;20026;-54
2023/05/12 02:28:33;;;;;;;13.38;9.13;;;12.60;99.90;;;;;;4993533;28;20045;-52
2023/05/12 02:30:58;;;;;;;13.55;10.32;;;12.70;99.90;;;;;;4993528;28;20066;-54
2023/05/12 02:33:24;;;;;;;17.88;9.98;;;12.70;99.90;;;;;;4993798;28;20180;-54
2023/05/12 02:35:50;;;;;;;11.38;9.30;;;12.70;99.90;;;;;;4993813;28;20037;-53
2023/05/12 02:38:15;;;;;;;15.68;10.57;;;12.70;99.90;;;;;;4993398;28;20022;-53
2023/05/12 02:40:41;;;;;;;14.13;9.95;;;12.60;99.90;;;;;;4992363;28;20398;-52
2023/05/12 02:43:07;;;;;;;14.05;9.80;;;12.60;99.90;;;;;;4993910;28;20037;-52
2023/05/12 02:45:32;;;;;;;13.60;10.32;;;12.60;99.90;;;;;;4993603;28;20117;-51
2023/05/12 02:47:58;;;;;;;13.65;11.07;;;12.60;99.90;;;;;;4993462;28;20100;-52
2023/05/12 02:50:23;;;;;;;14.07;10.95;;;12.60;99.90;;;;;;4993761;28;20065;-50
2023/05/12 02:52:49;;;;;;;15.88;11.32;;;12.60;99.90;;;;;;4993314;28;20035;-54
2023/05/12 02:55:15;;;;;;;18.75;12.00;;;12.50;99.90;;;;;;4993668;28;20105;-51
2023/05/12 02:57:42;;;;;;;19.60;11.50;;;12.40;99.90;;;;;;4993340;28;20278;-50
2023/05/12 03:00:08;;;;;;;19.23;12.70;;;12.40;99.90;;;;;;4992305;28;20041;-52
2023/05/12 03:02:35;;;;;;;14.57;11.05;;;12.40;99.90;;;;;;4993056;28;20398;-53
2023/05/12 03:05:01;;;;;;;17.95;12.82;;;12.40;99.90;;;;;;4992192;28;20026;-51
2023/05/12 03:07:27;;;;;;;16.38;12.23;;;12.40;99.90;;;;;;4993009;28;20402;-51
2023/05/12 03:09:52;;;;;;;21.65;13.27;;;12.40;99.90;;;;;;4992350;28;20022;-51
2023/05/12 03:12:18;;;;;;;25.13;14.30;;;12.50;99.90;;;;;;4992878;28;20490;-51
2023/05/12 03:14:43;;;;;;;26.58;15.68;;;12.50;99.90;;;;;;4993268;28;20041;-51
2023/05/12 03:17:09;;;;;;;23.13;14.15;;;12.50;99.90;;;;;;4992943;28;20019;-53
2023/05/12 03:19:34;;;;;;;23.30;13.57;;;12.40;99.90;;;;;;4993154;28;20034;-50
2023/05/12 03:22:02;;;;;;;26.63;14.50;;;12.50;99.90;;;;;;4992659;28;20037;-53
2023/05/12 03:24:27;;;;;;;24.88;14.48;;;12.50;99.90;;;;;;4992842;28;20026;-52
2023/05/12 03:26:53;;;;;;;24.42;14.80;;;12.50;99.90;;;;;;4992229;28;20394;-48
2023/05/12 03:29:19;;;;;;;25.02;15.07;;;12.50;99.90;;;;;;4992676;28;20073;-50
2023/05/12 03:31:45;;;;;;;25.88;14.00;;;12.50;99.90;;;;;;4992471;28;20486;-52
2023/05/12 03:34:10;;;;;;;23.48;14.35;;;12.50;99.90;;;;;;4992541;28;20113;-53
2023/05/12 03:36:36;;;;;;;27.10;15.15;;;12.50;99.90;;;;;;4992672;28;20027;-53
2023/05/12 03:39:02;;;;;;;29.33;14.68;;;12.50;99.90;;;;;;4992275;28;20093;-52
2023/05/12 03:41:28;;;;;;;30.95;15.60;;;12.60;99.90;;;;;;4992259;28;20030;-50
2023/05/12 03:43:53;;;;;;;24.70;14.18;;;12.50;99.90;;;;;;4992495;28;20466;-51
2023/05/12 03:46:19;;;;;;;28.75;15.70;;;12.40;99.90;;;;;;4992312;28;20557;-54
2023/05/12 03:48:45;;;;;;;24.77;13.93;;;12.40;99.90;;;;;;4991451;28;20073;-57
2023/05/12 03:51:10;;;;;;;16.70;9.48;;;12.40;99.90;;;;;;4992453;28;20027;-51
2023/05/12 03:53:36;;;;;;;12.23;7.75;;;12.30;99.90;;;;;;4992657;28;20026;-52
2023/05/12 03:56:05;;;;;;;10.55;6.93;;;12.30;99.90;;;;;;4992158;28;20061;-52
2023/05/12 03:58:30;;;;;;;9.80;6.13;;;12.30;99.90;;;;;;4991871;28;20018;-53
2023/05/12 04:00:56;;;;;;;5.95;4.63;;;12.20;99.90;;;;;;4992058;28;20618;-54
2023/05/12 04:03:22;;;;;;;4.78;3.65;;;12.20;99.90;;;;;;4992112;28;20049;-55
2023/05/12 04:05:47;;;;;;;3.20;2.58;;;12.20;99.90;;;;;;4992300;28;20022;-56
2023/05/12 04:08:13;;;;;;;2.03;1.85;;;12.20;99.90;;;;;;4990481;28;20023;-50
2023/05/12 04:10:39;;;;;;;2.05;1.85;;;12.20;99.90;;;;;;4989591;28;20061;-51
2023/05/12 04:13:06;;;;;;;2.75;2.50;;;12.10;99.90;;;;;;4992104;28;20056;-53
2023/05/12 04:15:35;;;;;;;3.30;2.85;;;12.20;99.90;;;;;;4992026;28;20078;-58
2023/05/12 04:18:01;;;;;;;4.28;3.03;;;12.20;99.90;;;;;;4991754;28;20027;-55
2023/05/12 04:20:27;;;;;;;4.55;3.67;;;12.20;99.90;;;;;;4992720;28;20022;-51
2023/05/12 04:22:52;;;;;;;4.63;2.92;;;12.20;99.90;;;;;;4991426;28;20486;-55
2023/05/12 04:25:18;;;;;;;2.70;1.88;;;12.20;99.90;;;;;;4991822;28;20030;-51
2023/05/12 04:27:43;;;;;;;3.45;1.80;;;12.20;99.90;;;;;;4991544;28;20022;-54
2023/05/12 04:30:09;;;;;;;2.08;1.88;;;12.20;99.90;;;;;;4991769;28;20529;-56
2023/05/12 04:32:35;;;;;;;1.95;1.50;;;12.20;99.90;;;;;;4991781;28;20030;-55
2023/05/12 04:35:00;;;;;;;1.70;1.60;;;12.20;99.90;;;;;;4991915;28;20084;-54
2023/05/12 04:37:26;;;;;;;4.97;1.75;;;12.20;99.90;;;;;;4991576;28;20022;-55
2023/05/12 04:39:52;;;;;;;3.35;1.92;;;12.20;99.90;;;;;;4991861;28;20026;-55
2023/05/12 04:42:17;;;;;;;2.33;1.90;;;12.20;99.90;;;;;;4991659;28;20026;-55
2023/05/12 04:44:44;;;;;;;1.60;1.50;;;12.20;99.90;;;;;;4992214;28;20089;-58
2023/05/12 04:47:10;;;;;;;2.47;2.25;;;12.30;99.90;;;;;;4991389;28;20018;-55
2023/05/12 04:49:36;;;;;;;3.08;2.35;;;12.30;99.90;;;;;;4991746;28;20110;-54
2023/05/12 04:52:01;;;;;;;2.50;2.30;;;12.30;99.90;;;;;;4991492;28;20275;-57
2023/05/12 04:54:27;;;;;;;4.45;2.65;;;12.30;99.90;;;;;;4991686;28;20026;-54
2023/05/12 04:56:52;;;;;;;2.53;2.33;;;12.30;99.90;;;;;;4991870;28;20030;-56
2023/05/12 04:59:17;;;;;;;4.22;3.50;;;12.20;99.90;;;;;;4991481;28;20113;-57
2023/05/12 05:01:43;;;;;;;4.72;2.97;;;12.30;99.90;;;;;;4995464;28;20053;-53
2023/05/12 05:04:08;;;;;;;2.75;2.55;;;12.30;99.90;;;;;;4995807;28;20027;-52
2023/05/12 05:06:34;;;;;;;5.55;3.08;;;12.30;99.90;;;;;;4995645;28;20030;-52
2023/05/12 05:08:59;;;;;;;3.53;3.20;;;12.30;99.90;;;;;;4994866;28;20049;-54
2023/05/12 05:11:25;;;;;;;3.78;3.53;;;12.30;99.90;;;;;;4994193;28;20026;-54
2023/05/12 05:13:51;;;;;;;4.10;3.80;;;12.40;99.90;;;;;;4995467;28;20022;-54
2023/05/12 05:16:16;;;;;;;5.43;3.92;;;12.40;99.90;;;;;;4995355;28;20056;-56
2023/05/12 05:18:45;;;;;;;8.27;4.95;;;12.40;99.90;;;;;;4995173;28;20035;-51
2023/05/12 05:21:12;;;;;;;5.65;5.07;;;12.40;99.90;;;;;;4995129;28;20105;-55
2023/05/12 05:23:38;;;;;;;6.00;4.60;;;12.40;99.90;;;;;;4995268;28;20109;-50
2023/05/12 05:26:03;;;;;;;8.90;5.80;;;12.40;99.90;;;;;;4995312;28;20204;-55
2023/05/12 05:28:29;;;;;;;9.43;5.25;;;12.40;99.90;;;;;;4995034;28;20030;-55
2023/05/12 05:30:55;;;;;;;7.65;6.43;;;12.50;99.90;;;;;;4994755;28;20030;-56
2023/05/12 05:33:21;;;;;;;6.47;5.88;;;12.50;99.90;;;;;;4994812;28;20030;-56
2023/05/12 05:35:47;;;;;;;8.45;7.05;;;12.50;99.90;;;;;;4994717;28;20129;-56
2023/05/12 05:38:13;;;;;;;6.20;5.65;;;13.20;99.90;;;;;;4994424;28;20076;-57
2023/05/12 05:40:38;;;;;;;6.65;5.60;;;12.60;99.90;;;;;;4993136;28;20038;-55
2023/05/12 05:43:05;;;;;;;7.80;6.25;;;12.60;99.90;;;;;;4994895;28;20149;-54
2023/05/12 05:45:31;;;;;;;11.90;6.45;;;12.70;99.90;;;;;;4994716;28;20028;-54
2023/05/12 05:47:56;;;;;;;9.48;6.05;;;12.70;99.90;;;;;;4994386;28;20390;-53
2023/05/12 05:50:22;;;;;;;8.05;5.85;;;12.70;99.90;;;;;;4994568;28;20026;-53
2023/05/12 05:52:47;;;;;;;14.68;5.85;;;12.80;99.90;;;;;;4994140;28;20038;-55
2023/05/12 05:55:13;;;;;;;9.38;6.45;;;12.80;99.90;;;;;;4994612;28;20038;-54
2023/05/12 05:57:38;;;;;;;7.47;6.60;;;12.80;99.90;;;;;;4994279;28;20034;-52
2023/05/12 06:00:06;;;;;;;9.55;6.55;;;12.70;99.90;;;;;;4993423;28;20155;-54
2023/05/12 06:02:32;;;;;;;8.10;7.30;;;12.80;99.90;;;;;;4994134;28;20022;-54
2023/05/12 06:04:58;;;;;;;9.38;8.18;;;12.70;99.90;;;;;;4993315;28;20487;-48
2023/05/12 06:07:24;;;;;;;9.77;8.05;;;12.70;99.90;;;;;;4994144;28;20120;-55
2023/05/12 06:09:52;;;;;;;15.85;8.27;;;12.70;99.90;;;;;;4993443;28;20058;-51
2023/05/12 06:12:18;;;;;;;11.77;8.43;;;12.70;99.90;;;;;;4993590;28;20454;-51
2023/05/12 06:14:43;;;;;;;9.30;7.72;;;12.70;99.90;;;;;;4994280;28;20101;-53
2023/05/12 06:17:09;;;;;;;12.55;8.13;;;12.70;99.90;;;;;;4994072;28;20038;-54
2023/05/12 06:19:35;;;;;;;10.98;7.82;;;12.70;99.90;;;;;;4994363;28;20494;-54
2023/05/12 06:22:00;;;;;;;10.85;7.18;;;12.70;99.90;;;;;;4993863;28;20030;-52
2023/05/12 06:24:26;;;;;;;7.70;6.97;;;12.70;99.90;;;;;;4994193;28;20543;-53
2023/05/12 06:26:51;;;;;;;8.07;6.85;;;12.60;99.90;;;;;;4994780;28;20054;-54
2023/05/12 06:29:18;;;;;;;7.00;6.07;;;12.70;99.90;;;;;;4994598;28;20018;-56
2023/05/12 06:31:44;;;;;;;8.98;6.93;;;12.60;99.90;;;;;;4994406;28;20502;-58
2023/05/12 06:34:09;;;;;;;11.45;6.85;;;12.70;99.90;;;;;;4994481;28;20103;-57
2023/05/12 06:36:35;;;;;;;10.27;7.07;;;12.80;99.90;;;;;;4995086;28;20037;-56
2023/05/12 06:39:00;;;;;;;8.68;6.80;;;12.80;99.90;;;;;;4993976;28;20026;-51
2023/05/12 06:41:26;;;;;;;8.07;5.88;;;12.90;99.90;;;;;;4993991;28;20418;-57
2023/05/12 06:43:52;;;;;;;14.20;6.30;;;12.90;99.90;;;;;;4994001;28;20038;-53
2023/05/12 06:46:17;;;;;;;10.85;6.13;;;12.90;99.90;;;;;;4994032;28;20393;-52
2023/05/12 06:48:43;;;;;;;7.80;6.70;;;12.90;99.90;;;;;;4993536;28;20027;-53
2023/05/12 06:51:09;;;;;;;8.35;6.20;;;12.90;99.90;;;;;;4993598;28;20030;-51
2023/05/12 06:53:37;;;;;;;8.32;6.45;;;12.90;99.90;;;;;;4993854;28;20486;-52
2023/05/12 06:56:04;;;;;;;7.88;6.00;;;13.00;99.90;;;;;;4993852;28;20490;-55
2023/05/12 06:58:29;;;;;;;11.60;6.03;;;13.00;99.90;;;;;;4993434;28;20037;-52
2023/05/12 07:00:55;;;;;;;6.88;6.20;;;13.00;99.90;;;;;;4993529;28;20073;-53
2023/05/12 07:03:20;;;;;;;6.97;6.28;;;13.10;99.90;;;;;;4993750;28;20034;-51
2023/05/12 07:05:46;;;;;;;6.90;6.22;;;13.10;99.90;;;;;;4993427;28;20029;-54
2023/05/12 07:08:11;;;;;;;13.98;6.03;;;13.20;99.90;;;;;;4993280;28;20080;-53
2023/05/12 07:10:37;;;;;;;7.25;6.50;;;13.20;99.90;;;;;;4992477;28;20026;-51
2023/05/12 07:13:03;;;;;;;6.88;6.22;;;13.20;99.90;;;;;;4992194;28;20029;-51
2023/05/12 07:15:29;;;;;;;6.57;5.97;;;13.20;99.90;;;;;;4993281;28;20034;-56
2023/05/12 07:17:54;;;;;;;6.60;5.88;;;13.30;99.90;;;;;;4993112;28;20032;-56
2023/05/12 07:20:20;;;;;;;6.72;6.00;;;13.30;99.90;;;;;;4993749;28;20031;-52
2023/05/12 07:22:46;;;;;;;11.77;6.13;;;13.40;99.90;;;;;;4992245;28;20034;-54
2023/05/12 07:25:12;;;;;;;13.40;6.03;;;13.40;99.90;;;;;;4992702;28;20426;-55
2023/05/12 07:27:38;;;;;;;9.57;5.88;;;13.30;99.90;;;;;;4992998;28;20093;-53
2023/05/12 07:30:07;;;;;;;8.40;5.93;;;13.30;99.90;;;;;;4993100;28;20046;-58
2023/05/12 07:32:33;;;;;;;9.60;5.93;;;13.30;99.90;;;;;;4992837;28;20022;-50
2023/05/12 07:34:58;;;;;;;7.05;5.70;;;13.40;99.90;;;;;;4993005;28;20109;-51
2023/05/12 07:37:24;;;;;;;6.22;5.63;;;13.40;99.90;;;;;;4992729;28;20102;-57
2023/05/12 07:39:50;;;;;;;6.13;5.50;;;13.40;99.90;;;;;;4992980;28;20026;-54
2023/05/12 07:42:15;;;;;;;5.45;4.93;;;13.40;99.90;;;;;;4992596;28;20026;-54
2023/05/12 07:44:41;;;;;;;6.32;5.30;;;13.50;99.90;;;;;;4992223;28;20038;-52
2023/05/12 07:47:07;;;;;;;8.80;6.05;;;13.50;99.90;;;;;;4992703;28;20034;-52
2023/05/12 07:49:32;;;;;;;6.25;5.65;;;13.50;99.90;;;;;;4995470;28;20033;-53
2023/05/12 07:51:58;;;;;;;8.63;5.53;;;13.60;99.90;;;;;;5005365;28;20363;-52
2023/05/12 07:54:23;;;;;;;8.63;5.93;;;13.60;99.90;;;;;;5006512;28;20041;-52
2023/05/12 07:56:49;;;;;;;9.27;6.20;;;13.60;99.90;;;;;;4992969;28;20504;-51
2023/05/12 07:59:15;;;;;;;9.07;5.97;;;13.60;99.90;;;;;;4992480;28;20073;-52
2023/05/12 08:01:41;;;;;;;9.52;5.53;;;13.50;99.90;;;;;;4992122;28;20106;-50
2023/05/12 08:04:07;;;;;;;6.97;5.45;;;13.60;99.90;;;;;;4990996;28;20077;-53
2023/05/12 08:06:33;;;;;;;6.82;6.03;;;13.50;99.90;;;;;;4991382;28;20026;-53
2023/05/12 08:08:58;;;;;;;7.05;5.85;;;13.60;99.90;;;;;;4988422;28;20022;-55
2023/05/12 08:11:24;;;;;;;8.85;6.78;;;13.60;99.90;;;;;;4990792;28;20022;-52
2023/05/12 08:13:50;;;;;;;6.22;5.68;;;13.50;99.90;;;;;;4992382;28;20045;-52
2023/05/12 08:16:16;;;;;;;6.80;5.18;;;13.70;99.90;;;;;;4992614;28;20034;-50
2023/05/12 08:18:41;;;;;;;10.23;5.88;;;13.70;99.90;;;;;;4992025;28;20022;-53
2023/05/12 08:21:07;;;;;;;7.72;5.78;;;13.70;99.90;;;;;;4990467;28;20030;-58
2023/05/12 08:23:33;;;;;;;7.72;5.75;;;13.70;99.90;;;;;;4991972;28;20030;-52
2023/05/12 08:25:58;;;;;;;5.65;5.13;;;13.80;99.90;;;;;;4991979;28;20101;-51
2023/05/12 08:28:24;;;;;;;7.43;5.88;;;13.90;99.90;;;;;;4991835;28;20030;-51
2023/05/12 08:30:49;;;;;;;6.43;5.38;;;14.00;99.90;;;;;;4991924;28;20026;-54
2023/05/12 08:33:15;;;;;;;7.60;5.57;;;14.00;99.90;;;;;;4992362;28;20085;-55
2023/05/12 08:35:41;;;;;;;6.18;4.93;;;14.10;99.90;;;;;;4992008;28;20037;-52
2023/05/12 08:38:06;;;;;;;7.40;5.20;;;14.20;99.90;;;;;;4991988;28;20026;-52
2023/05/12 08:40:39;;;;;;;5.60;4.18;;;14.20;99.90;;;;;;4992283;28;20049;-56
2023/05/12 08:43:16;;;;;;;7.47;4.88;;;14.20;99.90;;;;;;4992489;28;20037;-51
2023/05/12 08:45:43;;;;;;;4.90;4.45;;;14.20;99.90;;;;;;4992145;28;20031;-53
2023/05/12 08:48:09;;;;;;;5.93;4.78;;;14.20;99.90;;;;;;4991999;28;20494;-53
2023/05/12 08:50:36;;;;;;;5.68;4.75;;;14.20;99.90;;;;;;4992404;28;20023;-52
2023/05/12 08:53:04;;;;;;;6.85;3.95;;;14.30;99.90;;;;;;4992298;28;20057;-54
2023/05/12 08:55:30;;;;;;;9.63;4.75;;;14.40;99.90;;;;;;4992227;28;20022;-53
2023/05/12 08:57:57;;;;;;;13.43;5.32;;;14.60;99.90;;;;;;4991474;28;20034;-54
2023/05/12 09:00:27;;;;;;;4.20;3.80;;;14.70;99.90;;;;;;4992393;28;20026;-53
2023/05/12 09:02:54;;;;;;;6.53;4.35;;;14.80;99.90;;;;;;4991399;28;20049;-52
2023/05/12 09:05:20;;;;;;;7.38;4.38;;;14.90;99.90;;;;;;4991511;28;20077;-50
2023/05/12 09:07:47;;;;;;;4.53;3.95;;;15.00;99.90;;;;;;4991789;28;20092;-50
2023/05/12 09:10:17;;;;;;;5.20;3.95;;;15.10;99.90;;;;;;4992121;28;20024;-56
2023/05/12 09:12:46;;;;;;;6.10;4.13;;;15.10;99.90;;;;;;4991811;28;20069;-54
2023/05/12 09:15:18;;;;;;;4.07;3.70;;;15.20;99.90;;;;;;4990702;28;20033;-52
2023/05/12 09:17:44;;;;;;;7.25;3.70;;;15.40;99.90;;;;;;4972122;28;20052;-51
2023/05/12 09:20:11;;;;;;;7.20;3.95;;;15.50;99.90;;;;;;4972852;28;20041;-55
2023/05/12 09:22:38;;;;;;;6.38;3.75;;;15.70;99.90;;;;;;4971891;28;20074;-51
2023/05/12 09:25:20;;;;;;;4.13;3.75;;;15.80;99.90;;;;;;4975041;28;20022;-54
2023/05/12 09:27:47;;;;;;;7.10;4.15;;;15.90;99.90;;;;;;4991389;28;20028;-57
2023/05/12 09:30:12;;;;;;;6.78;4.57;;;15.90;99.90;;;;;;4992141;28;20481;-51
2023/05/12 09:32:38;;;;;;;10.38;3.80;;;16.10;99.90;;;;;;4991310;28;20073;-55
2023/05/12 09:35:05;;;;;;;7.47;4.10;;;16.10;99.90;;;;;;4991293;28;20030;-54
2023/05/12 09:37:32;;;;;;;4.97;3.58;;;16.30;99.90;;;;;;4991523;28;20025;-54
2023/05/12 09:39:59;;;;;;;5.10;3.40;;;16.10;99.90;;;;;;4991943;28;20023;-51
2023/05/12 09:42:28;;;;;;;7.90;4.20;;;15.90;99.90;;;;;;4991625;28;20022;-53
2023/05/12 09:44:58;;;;;;;9.00;4.18;;;15.70;99.90;;;;;;4991296;28;20029;-51
2023/05/12 09:47:27;;;;;;;3.65;3.35;;;15.60;99.90;;;;;;4992405;28;20018;-50
2023/05/12 09:49:54;;;;;;;7.30;3.47;;;15.40;99.90;;;;;;4996218;28;20023;-54
2023/05/12 09:52:21;;;;;;;4.82;3.53;;;15.40;99.90;;;;;;4994470;28;20018;-50
2023/05/12 09:54:47;;;;;;;6.70;4.13;;;15.40;99.90;;;;;;4994624;28;20034;-54
2023/05/12 09:57:15;;;;;;;3.88;3.53;;;15.50;99.90;;;;;;4994610;28;20076;-49
2023/05/12 09:59:43;;;;;;;5.15;4.50;;;15.40;99.90;;;;;;4994704;28;20018;-54
2023/05/12 10:02:12;;;;;;;15.55;9.57;;;15.30;99.90;;;;;;4994205;28;20053;-52
2023/05/12 10:04:51;;;;;;;43.67;27.00;;;15.40;99.90;;;;;;4994414;28;20042;-52
2023/05/12 10:07:21;;;;;;;5.28;4.53;;;15.30;99.90;;;;;;4993014;28;20024;-52
2023/05/12 10:09:48;;;;;;;5.13;4.05;;;15.40;99.90;;;;;;5006332;28;20064;-51
2023/05/12 10:12:15;;;;;;;4.05;3.63;;;15.40;99.90;;;;;;5006946;28;20026;-48
2023/05/12 10:14:41;;;;;;;7.22;4.63;;;15.40;99.90;;;;;;4994285;28;20401;-47
2023/05/12 10:17:08;;;;;;;9.32;4.82;;;15.30;99.90;;;;;;4994082;28;20019;-48
2023/05/12 10:19:34;;;;;;;6.13;4.30;;;15.30;99.90;;;;;;4993168;28;20030;-53
2023/05/12 10:22:00;;;;;;;5.75;5.10;;;15.20;99.90;;;;;;4993920;28;20422;-54
2023/05/12 10:24:27;;;;;;;12.27;6.32;;;15.30;99.90;;;;;;4994271;28;20022;-52
2023/05/12 10:26:55;;;;;;;5.90;4.35;;;15.20;99.90;;;;;;4994483;28;20458;-46
2023/05/12 10:29:28;;;;;;;5.25;4.45;;;15.20;99.90;;;;;;4994472;28;20019;-51
2023/05/12 10:31:57;;;;;;;6.90;4.68;;;15.30;99.90;;;;;;4993698;28;20026;-48
2023/05/12 10:34:28;;;;;;;9.38;4.30;;;15.30;99.90;;;;;;4994330;28;20034;-49
2023/05/12 10:36:54;;;;;;;4.30;4.00;;;15.40;99.90;;;;;;4994256;28;20026;-48
2023/05/12 10:39:26;;;;;;;4.28;3.80;;;15.30;99.90;;;;;;4993687;28;20037;-50
2023/05/12 10:42:07;;;;;;;5.43;3.80;;;15.30;99.90;;;;;;4993607;28;20030;-53
2023/05/12 10:44:33;;;;;;;3.70;3.40;;;15.40;99.90;;;;;;4993862;28;20401;-52
2023/05/12 10:46:59;;;;;;;6.72;3.42;;;15.50;99.90;;;;;;4993669;28;20015;-49
2023/05/12 10:49:38;;;;;;;7.72;4.07;;;15.50;99.90;;;;;;4994242;28;20029;-46
2023/05/12 10:52:04;;;;;;;4.80;4.00;;;15.60;99.90;;;;;;4993562;28;20097;-46
2023/05/12 10:54:39;;;;;;;5.55;3.88;;;15.60;99.90;;;;;;4993742;28;20398;-48
2023/05/12 10:57:14;;;;;;;5.80;3.53;;;15.60;99.90;;;;;;4993724;28;20034;-49
2023/05/12 10:59:48;;;;;;;4.13;3.72;;;15.70;99.90;;;;;;4993797;28;20032;-47
2023/05/12 11:02:24;;;;;;;3.78;3.38;;;15.80;99.90;;;;;;4993413;28;20161;-49
2023/05/12 11:04:54;;;;;;;4.22;3.63;;;15.90;99.90;;;;;;4994500;28;20359;-48
2023/05/12 11:07:22;;;;;;;4.38;3.50;;;15.90;99.90;;;;;;4993293;28;20097;-51
2023/05/12 11:09:48;;;;;;;4.82;3.45;;;15.80;99.90;;;;;;4993413;28;20033;-53
2023/05/12 11:12:14;;;;;;;5.60;3.67;;;15.70;99.90;;;;;;4993035;28;20022;-52
2023/05/12 11:14:42;;;;;;;5.55;3.92;;;15.70;99.90;;;;;;4992916;28;20471;-50
2023/05/12 11:17:10;;;;;;;3.70;3.28;;;15.60;99.90;;;;;;4987158;28;20089;-47
2023/05/12 11:19:38;;;;;;;7.32;3.58;;;15.50;99.90;;;;;;4973695;28;20026;-50
2023/05/12 11:22:09;;;;;;;4.82;3.70;;;15.30;99.90;;;;;;4984884;28;20490;-53
2023/05/12 11:24:36;;;;;;;8.82;3.95;;;15.30;99.90;;;;;;4991071;28;20446;-50
2023/05/12 11:27:06;;;;;;;8.18;5.50;;;15.30;99.90;;;;;;4991777;28;20030;-48
2023/05/12 11:29:32;;;;;;;6.40;5.18;;;15.20;99.90;;;;;;4992336;28;20065;-49
2023/05/12 11:31:59;;;;;;;21.88;14.70;;;15.30;99.90;;;;;;4992590;28;20028;-48
2023/05/12 11:34:26;;;;;;;4.53;3.90;;;15.40;99.90;;;;;;4992898;28;20394;-54
2023/05/12 11:36:53;;;;;;;6.88;3.38;;;15.40;99.90;;;;;;4988852;28;20050;-52
2023/05/12 11:39:31;;;;;;;9.82;3.60;;;15.40;99.90;;;;;;4973231;28;20033;-50
2023/05/12 11:42:02;;;;;;;4.70;3.70;;;15.40;99.90;;;;;;4984878;28;20504;-48
2023/05/12 11:44:28;;;;;;;6.88;3.47;;;15.50;99.90;;;;;;4993302;28;20050;-48
2023/05/12 11:47:02;;;;;;;6.78;3.85;;;15.50;99.90;;;;;;4993077;28;20073;-45
2023/05/12 11:49:30;;;;;;;5.80;4.05;;;15.60;99.90;;;;;;4992794;28;20287;-51
2023/05/12 11:51:58;;;;;;;4.38;3.70;;;15.60;99.90;;;;;;4992365;28;20037;-52
2023/05/12 11:54:26;;;;;;;3.42;3.13;;;15.80;99.90;;;;;;4992422;28;20081;-50
2023/05/12 11:56:53;;;;;;;5.78;3.78;;;15.80;99.90;;;;;;4992931;28;20510;-49
2023/05/12 11:59:32;;;;;;;4.13;3.40;;;15.80;99.90;;;;;;4993363;28;20026;-46
2023/05/12 12:02:01;;;;;;;7.60;3.22;;;15.90;99.90;;;;;;4992787;28;20034;-51
2023/05/12 12:04:39;;;;;;;3.70;3.35;;;16.00;99.90;;;;;;4992557;28;20062;-47
2023/05/12 12:07:05;;;;;;;6.32;3.20;;;16.10;99.90;;;;;;4992143;28;20019;-48
2023/05/12 12:09:35;;;;;;;7.13;3.40;;;16.30;99.90;;;;;;4992079;28;20023;-46
2023/05/12 12:12:02;;;;;;;6.50;2.83;;;16.50;99.90;;;;;;4991583;28;20435;-46
2023/05/12 12:14:28;;;;;;;4.63;3.58;;;16.60;99.90;;;;;;4992111;28;20033;-46
2023/05/12 12:16:54;;;;;;;5.00;3.45;;;16.60;99.90;;;;;;4992289;28;20035;-47
2023/05/12 12:19:19;;;;;;;3.83;3.22;;;16.70;99.90;;;;;;4991890;28;20521;-45
2023/05/12 12:21:45;;;;;;;4.97;3.05;;;16.70;99.90;;;;;;4991809;28;20392;-48
2023/05/12 12:24:11;;;;;;;5.18;3.08;;;16.70;99.90;;;;;;4992059;28;20077;-46
2023/05/12 12:26:37;;;;;;;3.58;2.17;;;16.60;99.90;;;;;;4992327;28;20053;-48
2023/05/12 12:29:03;;;;;;;2.92;2.30;;;16.50;99.90;;;;;;4991635;28;20022;-48
2023/05/12 12:31:29;;;;;;;2.28;2.00;;;16.50;99.90;;;;;;4991565;28;20039;-49
2023/05/12 12:33:54;;;;;;;3.40;2.05;;;16.50;99.90;;;;;;4992140;28;20049;-50
2023/05/12 12:36:20;;;;;;;4.75;2.00;;;16.50;99.90;;;;;;4992338;28;20030;-49
2023/05/12 12:38:46;;;;;;;1.73;1.63;;;16.50;99.90;;;;;;4991614;28;20483;-49